Home > Products > Valid Products > TAF

000
FTUS46 KHNX 280520
TAFFAT
TAF
KFAT 280520Z 2806/2906 VRB05KT P6SM SKC
      TEMPO 2821/2901 33010G15KT=



000
FTUS46 KHNX 280520
TAFBFL
TAF
KBFL 280520Z 2806/2906 VRB05KT P6SM SKC
      TEMPO 2821/2901 33010G15KT=



000
FTUS46 KHNX 272320
TAFFAT
TAF
KFAT 272320Z 2800/2824 31010KT P6SM FEW070
     FM280200 VRB04KT P6SM SKC=



000
FTUS46 KHNX 272320
TAFBFL
TAF
KBFL 272320Z 2800/2824 29012G17KT P6SM SKC
     FM280200 VRB05KT P6SM SKC
     FM282000 30010G15KT P6SM SKC=



000
FTUS46 KHNX 272320
TAFMCE
TAF
KMCE 272320Z 2800/2824 33012G17KT P6SM SKC
     FM280200 VRB05KT P6SM SKC
     FM281900 32010G15KT P6SM SKC=



000
FTUS46 KHNX 271720
TAFMCE
TAF
KMCE 271720Z 2718/2818 32007KT P6SM SKC
     FM272100 33010G15KT P6SM SKC
     FM280200 VRB05KT P6SM SKC=



000
FTUS46 KHNX 271720
TAFFAT
TAF
KFAT 271720Z 2718/2818 VRB06KT P6SM SKC=



000
FTUS46 KHNX 271720
TAFBFL
TAF
KBFL 271720Z 2718/2818 VRB05KT P6SM SKC
     FM272000 31010G15KT P6SM SKC
     FM280100 VRB05KT P6SM SKC=



000
FTUS46 KHNX 251125
TAFFAT
TAF
KFAT 251125Z 2512/2612 31008KT P6SM SCT100 BKN250
     FM252200 32010KT P6SM SCT060 BKN100
     FM260500 VRB03KT P6SM SCT250=



000
FTUS46 KHNX 251125
TAFBFL
TAF
KBFL 251125Z 2512/2612 33005KT P6SM SCT100 BKN250
      TEMPO 2523/2603 SCT050 BKN100=



000
FTUS46 KHNX 251125
TAFMCE
TAF
KMCE 251125Z 2512/2612 32009KT P6SM SCT100 BKN250
      TEMPO 2522/2602 SCT060 BKN100=



    US Dept of Commerce
    National Oceanic and Atmospheric Administration
    National Weather Service
    1325 East West Highway
    Silver Spring, MD 20910
    Page Author: NWS Internet Services Team
Disclaimer
Information Quality
Credits
Glossary
Privacy Policy
Freedom of Information Act (FOIA)
About Us
Career Opportunities